Time,TemperatureF,DewpointF,PressureIn,WindDirection,WindDirectionDegrees,WindSpeedMPH,WindSpeedGustMPH,Humidity,HourlyPrecipIn,Conditions,Clouds,dailyrainin,SoftwareType,DateUTC
2013-07-06 00:00:00,75.9,71.0,30.02,NNE,22,2.0,4.0,84,0.00,,,0.00,Rainwise IP-100,2013-07-06 04:00:00,
2013-07-06 00:01:00,75.9,71.0,30.01,NNE,22,2.0,4.0,84,0.00,,,0.00,Rainwise IP-100,2013-07-06 04:01:00,
2013-07-06 00:06:00,75.3,69.0,30.01,NE,45,0.0,3.0,83,0.00,,,0.00,Rainwise IP-100,2013-07-06 04:06:00,
2013-07-06 00:11:00,74.6,69.0,30.00,SE,135,3.0,3.0,83,0.00,,,0.00,Rainwise IP-100,2013-07-06 04:11:00,
2013-07-06 00:16:00,74.2,69.0,30.02,NE,45,3.0,3.0,83,0.00,,,0.00,Rainwise IP-100,2013-07-06 04:16:00,
2013-07-06 00:21:00,73.2,67.0,30.02,ENE,67,1.0,4.0,82,0.00,,,0.00,Rainwise IP-100,2013-07-06 04:21:00,
2013-07-06 00:26:00,72.2,66.0,30.01,ESE,112,3.0,3.0,82,0.00,,,0.00,Rainwise IP-100,2013-07-06 04:26:00,
2013-07-06 00:31:00,71.8,66.0,30.04,ESE,112,0.0,3.0,83,0.00,,,0.00,Rainwise IP-100,2013-07-06 04:31:00,
2013-07-06 00:36:00,71.5,66.0,30.04,ESE,112,0.0,1.0,84,0.00,,,0.00,Rainwise IP-100,2013-07-06 04:36:00,
2013-07-06 00:41:00,71.3,66.0,30.02,ESE,112,0.0,2.0,84,0.00,,,0.00,Rainwise IP-100,2013-07-06 04:41:00,
2013-07-06 00:46:00,71.3,66.0,30.03,ESE,112,0.0,1.0,84,0.00,,,0.00,Rainwise IP-100,2013-07-06 04:46:00,
2013-07-06 00:51:00,71.2,66.0,30.02,NNE,22,3.0,3.0,84,0.00,,,0.00,Rainwise IP-100,2013-07-06 04:51:00,
2013-07-06 00:56:00,71.0,66.0,30.01,NNE,22,2.0,3.0,85,0.00,,,0.00,Rainwise IP-100,2013-07-06 04:56:00,
2013-07-06 01:01:00,71.0,66.0,30.03,NNE,22,2.0,2.0,86,0.00,,,0.00,Rainwise IP-100,2013-07-06 05:01:00,
2013-07-06 01:06:00,70.9,66.0,30.03,WNW,292,0.0,2.0,86,0.00,,,0.00,Rainwise IP-100,2013-07-06 05:06:00,
2013-07-06 01:11:00,70.9,66.0,30.04,NE,45,1.0,3.0,87,0.00,,,0.00,Rainwise IP-100,2013-07-06 05:11:00,
2013-07-06 01:16:00,70.8,66.0,30.02,NNE,22,0.0,4.0,88,0.00,,,0.00,Rainwise IP-100,2013-07-06 05:16:00,
2013-07-06 01:21:00,70.9,67.0,30.05,NNE,22,0.0,3.0,89,0.00,,,0.00,Rainwise IP-100,2013-07-06 05:21:00,
2013-07-06 01:26:00,71.6,68.0,30.05,NNW,337,1.0,4.0,90,0.00,,,0.00,Rainwise IP-100,2013-07-06 05:26:00,
2013-07-06 01:31:00,72.5,69.0,30.04,NNW,337,3.0,9.0,90,0.00,,,0.00,Rainwise IP-100,2013-07-06 05:31:00,
2013-07-06 01:36:00,73.8,70.0,30.04,North,0,4.0,9.0,89,0.00,,,0.00,Rainwise IP-100,2013-07-06 05:36:00,
2013-07-06 01:41:00,73.1,69.0,30.02,ENE,67,0.0,6.0,86,0.00,,,0.00,Rainwise IP-100,2013-07-06 05:41:00,
2013-07-06 01:46:00,71.6,66.0,30.04,West,270,3.0,4.0,85,0.00,,,0.00,Rainwise IP-100,2013-07-06 05:46:00,
2013-07-06 01:51:00,72.2,68.0,30.05,WSW,247,3.0,9.0,88,0.00,,,0.00,Rainwise IP-100,2013-07-06 05:51:00,
2013-07-06 01:56:00,74.0,71.0,30.04,WNW,292,4.0,6.0,89,0.00,,,0.00,Rainwise IP-100,2013-07-06 05:56:00,
2013-07-06 02:01:00,75.5,71.0,30.03,West,270,3.0,6.0,88,0.00,,,0.00,Rainwise IP-100,2013-07-06 06:01:00,
2013-07-06 02:06:00,76.3,71.0,30.03,West,270,1.0,6.0,86,0.00,,,0.00,Rainwise IP-100,2013-07-06 06:06:00,
2013-07-06 02:11:00,76.5,71.0,30.00,West,270,4.0,6.0,85,0.00,,,0.00,Rainwise IP-100,2013-07-06 06:11:00,
2013-07-06 02:16:00,76.7,71.0,30.03,WNW,292,1.0,5.0,84,0.00,,,0.00,Rainwise IP-100,2013-07-06 06:16:00,
2013-07-06 02:21:00,76.4,71.0,30.03,NNE,22,2.0,4.0,83,0.00,,,0.00,Rainwise IP-100,2013-07-06 06:21:00,
2013-07-06 02:26:00,75.6,69.0,30.01,NNE,22,2.0,3.0,82,0.00,,,0.00,Rainwise IP-100,2013-07-06 06:26:00,
2013-07-06 02:31:00,74.4,69.0,30.02,ENE,67,2.0,4.0,82,0.00,,,0.00,Rainwise IP-100,2013-07-06 06:31:00,
2013-07-06 02:36:00,73.1,68.0,30.03,East,90,0.0,3.0,84,0.00,,,0.00,Rainwise IP-100,2013-07-06 06:36:00,
2013-07-06 02:41:00,72.6,68.0,30.03,East,90,1.0,1.0,85,0.00,,,0.00,Rainwise IP-100,2013-07-06 06:41:00,
2013-07-06 02:46:00,72.9,69.0,30.04,NNE,22,1.0,2.0,86,0.00,,,0.00,Rainwise IP-100,2013-07-06 06:46:00,
2013-07-06 02:51:00,73.3,69.0,30.01,North,0,1.0,4.0,87,0.00,,,0.00,Rainwise IP-100,2013-07-06 06:51:00,
2013-07-06 02:56:00,73.9,70.0,30.01,WNW,292,0.0,3.0,88,0.00,,,0.00,Rainwise IP-100,2013-07-06 06:56:00,
2013-07-06 03:01:00,74.3,71.0,30.01,NW,315,3.0,3.0,88,0.00,,,0.00,Rainwise IP-100,2013-07-06 07:01:00,
2013-07-06 03:06:00,74.3,70.0,30.02,NNW,337,1.0,4.0,87,0.00,,,0.00,Rainwise IP-100,2013-07-06 07:06:00,
2013-07-06 03:11:00,73.9,69.0,30.02,NNE,22,1.0,2.0,86,0.00,,,0.00,Rainwise IP-100,2013-07-06 07:11:00,
2013-07-06 03:16:00,73.5,69.0,30.01,NNE,22,2.0,2.0,86,0.00,,,0.00,Rainwise IP-100,2013-07-06 07:16:00,
2013-07-06 03:21:00,73.2,69.0,30.03,NE,45,0.0,3.0,86,0.00,,,0.00,Rainwise IP-100,2013-07-06 07:21:00,
2013-07-06 03:26:00,73.1,69.0,30.00,NE,45,0.0,2.0,87,0.00,,,0.00,Rainwise IP-100,2013-07-06 07:26:00,
2013-07-06 03:31:00,73.3,69.0,30.02,North,0,0.0,1.0,87,0.00,,,0.00,Rainwise IP-100,2013-07-06 07:31:00,
2013-07-06 03:36:00,73.3,69.0,30.01,ENE,67,0.0,2.0,88,0.00,,,0.00,Rainwise IP-100,2013-07-06 07:36:00,
2013-07-06 03:41:00,73.4,69.0,30.03,WNW,292,0.0,3.0,88,0.00,,,0.00,Rainwise IP-100,2013-07-06 07:41:00,
2013-07-06 03:46:00,73.7,70.0,30.02,NNW,337,2.0,7.0,88,0.00,,,0.00,Rainwise IP-100,2013-07-06 07:46:00,
2013-07-06 03:51:00,74.1,70.0,30.00,WNW,292,5.0,5.0,88,0.00,,,0.00,Rainwise IP-100,2013-07-06 07:51:00,
2013-07-06 03:56:00,74.4,70.0,30.02,WSW,247,5.0,7.0,87,0.00,,,0.00,Rainwise IP-100,2013-07-06 07:56:00,
2013-07-06 04:01:00,75.0,71.0,30.01,NW,315,5.0,9.0,86,0.00,,,0.00,Rainwise IP-100,2013-07-06 08:01:00,
2013-07-06 04:06:00,75.6,71.0,30.00,WNW,292,2.0,8.0,85,0.00,,,0.00,Rainwise IP-100,2013-07-06 08:06:00,
2013-07-06 04:11:00,76.0,70.0,30.00,WSW,247,4.0,7.0,83,0.00,,,0.00,Rainwise IP-100,2013-07-06 08:11:00,
2013-07-06 04:16:00,76.0,70.0,30.00,WNW,292,2.0,7.0,83,0.00,,,0.00,Rainwise IP-100,2013-07-06 08:16:00,
2013-07-06 04:21:00,76.0,70.0,30.02,WSW,247,3.0,6.0,83,0.00,,,0.00,Rainwise IP-100,2013-07-06 08:21:00,
2013-07-06 04:26:00,75.9,70.0,30.01,West,270,4.0,7.0,83,0.00,,,0.00,Rainwise IP-100,2013-07-06 08:26:00,
2013-07-06 04:30:00,75.7,70.0,30.01,West,270,4.0,7.0,83,0.00,,,0.00,Rainwise IP-100,2013-07-06 08:30:00,
2013-07-06 04:35:00,75.7,70.0,30.04,WSW,247,4.0,7.0,83,0.00,,,0.00,Rainwise IP-100,2013-07-06 08:35:00,
2013-07-06 04:40:00,75.6,70.0,30.04,WSW,247,2.0,7.0,84,0.00,,,0.00,Rainwise IP-100,2013-07-06 08:40:00,
2013-07-06 04:45:00,75.6,70.0,30.03,WSW,247,3.0,7.0,84,0.00,,,0.00,Rainwise IP-100,2013-07-06 08:45:00,
2013-07-06 04:50:00,75.5,70.0,30.02,SW,225,3.0,9.0,84,0.00,,,0.00,Rainwise IP-100,2013-07-06 08:50:00,
2013-07-06 04:55:00,75.4,70.0,30.01,WSW,247,4.0,8.0,84,0.00,,,0.00,Rainwise IP-100,2013-07-06 08:55:00,
2013-07-06 05:00:00,75.2,70.0,29.99,WSW,247,2.0,8.0,84,0.00,,,0.00,Rainwise IP-100,2013-07-06 09:00:00,
2013-07-06 05:05:00,75.2,70.0,30.02,WSW,247,5.0,7.0,85,0.00,,,0.00,Rainwise IP-100,2013-07-06 09:05:00,
2013-07-06 05:10:00,75.2,70.0,30.01,West,270,0.0,6.0,85,0.00,,,0.00,Rainwise IP-100,2013-07-06 09:10:00,
2013-07-06 05:15:00,75.2,70.0,30.01,SSW,202,0.0,8.0,85,0.00,,,0.00,Rainwise IP-100,2013-07-06 09:15:00,
2013-07-06 05:20:00,75.2,70.0,30.00,West,270,3.0,6.0,85,0.00,,,0.00,Rainwise IP-100,2013-07-06 09:20:00,
2013-07-06 05:25:00,75.2,70.0,30.03,WSW,247,0.0,7.0,84,0.00,,,0.00,Rainwise IP-100,2013-07-06 09:25:00,
2013-07-06 05:30:00,75.2,70.0,30.02,WNW,292,0.0,5.0,84,0.00,,,0.00,Rainwise IP-100,2013-07-06 09:30:00,
2013-07-06 05:35:00,75.2,70.0,30.03,NW,315,0.0,5.0,84,0.00,,,0.00,Rainwise IP-100,2013-07-06 09:35:00,
2013-07-06 05:40:00,75.4,70.0,30.02,WSW,247,0.0,5.0,84,0.00,,,0.00,Rainwise IP-100,2013-07-06 09:40:00,
2013-07-06 05:45:00,75.8,70.0,30.03,NE,45,3.0,6.0,83,0.00,,,0.00,Rainwise IP-100,2013-07-06 09:45:00,
2013-07-06 05:50:00,76.2,70.0,30.02,NNE,22,4.0,4.0,82,0.00,,,0.00,Rainwise IP-100,2013-07-06 09:50:00,
2013-07-06 05:55:00,76.5,70.0,30.01,WSW,247,1.0,6.0,81,0.00,,,0.00,Rainwise IP-100,2013-07-06 09:55:00,
2013-07-06 06:00:00,76.4,70.0,30.02,ENE,67,2.0,4.0,81,0.00,,,0.00,Rainwise IP-100,2013-07-06 10:00:00,
2013-07-06 06:05:00,76.2,69.0,30.04,NNW,337,0.0,4.0,80,0.00,,,0.00,Rainwise IP-100,2013-07-06 10:05:00,
2013-07-06 06:10:00,76.3,70.0,30.03,WSW,247,2.0,0.0,81,0.00,,,0.00,Rainwise IP-100,2013-07-06 10:10:00,
2013-07-06 06:15:00,76.4,70.0,30.02,North,0,3.0,4.0,81,0.00,,,0.00,Rainwise IP-100,2013-07-06 10:15:00,
2013-07-06 06:20:00,76.4,70.0,30.01,NW,315,0.0,3.0,81,0.00,,,0.00,Rainwise IP-100,2013-07-06 10:20:00,
2013-07-06 06:25:00,76.3,70.0,30.04,NW,315,0.0,3.0,81,0.00,,,0.00,Rainwise IP-100,2013-07-06 10:25:00,
2013-07-06 06:30:00,76.3,70.0,30.03,NNW,337,0.0,4.0,81,0.00,,,0.00,Rainwise IP-100,2013-07-06 10:30:00,
2013-07-06 06:35:00,75.1,68.0,30.04,ENE,67,2.0,4.0,80,0.00,,,0.00,Rainwise IP-100,2013-07-06 10:35:00,
2013-07-06 06:40:00,73.3,66.0,30.05,NNE,22,0.0,4.0,80,0.00,,,0.00,Rainwise IP-100,2013-07-06 10:40:00,
2013-07-06 06:45:00,73.0,67.0,30.02,NE,45,0.0,3.0,82,0.00,,,0.00,Rainwise IP-100,2013-07-06 10:45:00,
2013-07-06 06:50:00,72.9,67.0,30.02,ENE,67,3.0,3.0,82,0.00,,,0.00,Rainwise IP-100,2013-07-06 10:50:00,
2013-07-06 06:55:00,72.0,66.0,30.03,ENE,67,2.0,3.0,83,0.00,,,0.00,Rainwise IP-100,2013-07-06 10:55:00,
2013-07-06 07:00:00,71.9,67.0,30.03,SSE,157,0.0,3.0,85,0.00,,,0.00,Rainwise IP-100,2013-07-06 11:00:00,
2013-07-06 07:05:00,73.1,68.0,30.03,ENE,67,3.0,3.0,85,0.00,,,0.00,Rainwise IP-100,2013-07-06 11:05:00,
2013-07-06 07:10:00,73.4,68.0,30.04,East,90,0.0,3.0,83,0.00,,,0.00,Rainwise IP-100,2013-07-06 11:10:00,
2013-07-06 07:15:00,72.9,67.0,30.00,East,90,1.0,2.0,83,0.00,,,0.00,Rainwise IP-100,2013-07-06 11:15:00,
2013-07-06 07:20:00,72.6,67.0,30.04,East,90,0.0,1.0,84,0.00,,,0.00,Rainwise IP-100,2013-07-06 11:20:00,
2013-07-06 07:25:00,73.0,68.0,30.02,East,90,0.0,0.0,84,0.00,,,0.00,Rainwise IP-100,2013-07-06 11:25:00,
2013-07-06 07:30:00,74.6,69.0,30.04,East,90,0.0,1.0,84,0.00,,,0.00,Rainwise IP-100,2013-07-06 11:30:00,
2013-07-06 07:35:00,75.5,69.0,30.00,East,90,0.0,1.0,81,0.00,,,0.00,Rainwise IP-100,2013-07-06 11:35:00,
2013-07-06 07:40:00,75.9,69.0,30.04,NE,45,3.0,3.0,80,0.00,,,0.00,Rainwise IP-100,2013-07-06 11:40:00,
2013-07-06 07:45:00,76.1,69.0,30.02,NNE,22,0.0,3.0,79,0.00,,,0.00,Rainwise IP-100,2013-07-06 11:45:00,
2013-07-06 07:50:00,76.3,69.0,30.03,NNE,22,1.0,1.0,79,0.00,,,0.00,Rainwise IP-100,2013-07-06 11:50:00,
2013-07-06 07:55:00,76.3,69.0,30.03,ENE,67,3.0,3.0,78,0.00,,,0.00,Rainwise IP-100,2013-07-06 11:55:00,
2013-07-06 08:00:00,75.9,68.0,30.02,East,90,1.0,3.0,78,0.00,,,0.00,Rainwise IP-100,2013-07-06 12:00:00,
2013-07-06 08:05:00,76.2,69.0,30.02,East,90,0.0,1.0,79,0.00,,,0.00,Rainwise IP-100,2013-07-06 12:05:00,
2013-07-06 08:10:00,77.9,71.0,30.02,WNW,292,5.0,5.0,78,0.00,,,0.00,Rainwise IP-100,2013-07-06 12:10:00,
2013-07-06 08:15:00,78.8,70.0,30.02,WNW,292,3.0,5.0,75,0.00,,,0.00,Rainwise IP-100,2013-07-06 12:15:00,
2013-07-06 08:20:00,79.3,70.0,30.03,North,0,2.0,5.0,74,0.00,,,0.00,Rainwise IP-100,2013-07-06 12:20:00,
2013-07-06 08:25:00,79.7,70.0,30.05,NE,45,2.0,5.0,73,0.00,,,0.00,Rainwise IP-100,2013-07-06 12:25:00,
2013-07-06 08:30:00,78.9,69.0,30.01,ENE,67,2.0,4.0,72,0.00,,,0.00,Rainwise IP-100,2013-07-06 12:30:00,
2013-07-06 08:35:00,77.8,69.0,30.02,ENE,67,3.0,4.0,74,0.00,,,0.00,Rainwise IP-100,2013-07-06 12:35:00,
2013-07-06 08:40:00,77.2,69.0,30.01,NE,45,3.0,5.0,75,0.00,,,0.00,Rainwise IP-100,2013-07-06 12:40:00,
2013-07-06 08:45:00,77.9,69.0,30.04,NNE,22,4.0,6.0,75,0.00,,,0.00,Rainwise IP-100,2013-07-06 12:45:00,
2013-07-06 08:50:00,78.8,69.0,30.00,North,0,2.0,8.0,74,0.00,,,0.00,Rainwise IP-100,2013-07-06 12:50:00,
2013-07-06 08:55:00,79.9,70.0,30.00,NW,315,2.0,4.0,73,0.00,,,0.00,Rainwise IP-100,2013-07-06 12:55:00,
2013-07-06 09:00:00,81.3,71.0,30.01,NNW,337,2.0,7.0,71,0.00,,,0.00,Rainwise IP-100,2013-07-06 13:00:00,
2013-07-06 09:01:00,81.5,71.0,30.00,WNW,292,6.0,7.0,71,0.00,,,0.00,Rainwise IP-100,2013-07-06 13:01:00,
2013-07-06 09:06:00,82.4,71.0,30.02,WNW,292,4.0,7.0,69,0.00,,,0.00,Rainwise IP-100,2013-07-06 13:06:00,
2013-07-06 09:11:00,83.4,71.0,30.00,North,0,3.0,4.0,67,0.00,,,0.00,Rainwise IP-100,2013-07-06 13:11:00,
2013-07-06 09:16:00,84.4,72.0,30.01,WNW,292,3.0,4.0,66,0.00,,,0.00,Rainwise IP-100,2013-07-06 13:16:00,
2013-07-06 09:21:00,84.8,71.0,29.98,NNW,337,3.0,8.0,64,0.00,,,0.00,Rainwise IP-100,2013-07-06 13:21:00,
2013-07-06 09:26:00,84.6,71.0,29.99,NW,315,3.0,3.0,63,0.00,,,0.00,Rainwise IP-100,2013-07-06 13:26:00,
2013-07-06 09:31:00,84.2,71.0,29.98,NW,315,0.0,0.0,64,0.00,,,0.00,Rainwise IP-100,2013-07-06 13:31:00,
2013-07-06 09:36:00,84.3,71.0,30.01,WNW,292,3.0,8.0,64,0.00,,,0.00,Rainwise IP-100,2013-07-06 13:36:00,
2013-07-06 09:41:00,84.4,70.0,29.99,WSW,247,5.0,9.0,63,0.00,,,0.00,Rainwise IP-100,2013-07-06 13:41:00,
2013-07-06 09:46:00,84.1,70.0,30.01,WNW,292,2.0,8.0,63,0.00,,,0.00,Rainwise IP-100,2013-07-06 13:46:00,
2013-07-06 09:51:00,84.1,71.0,29.99,NNW,337,7.0,7.0,64,0.00,,,0.00,Rainwise IP-100,2013-07-06 13:51:00,
2013-07-06 09:56:00,84.5,71.0,30.01,NNW,337,3.0,7.0,64,0.00,,,0.00,Rainwise IP-100,2013-07-06 13:56:00,
2013-07-06 10:01:00,85.0,71.0,30.01,NW,315,4.0,9.0,63,0.00,,,0.00,Rainwise IP-100,2013-07-06 14:01:00,
2013-07-06 10:06:00,84.8,71.0,29.99,NNW,337,6.0,6.0,63,0.00,,,0.00,Rainwise IP-100,2013-07-06 14:06:00,
2013-07-06 10:11:00,84.4,70.0,30.01,WNW,292,5.0,9.0,63,0.00,,,0.00,Rainwise IP-100,2013-07-06 14:11:00,
2013-07-06 10:16:00,84.5,71.0,30.00,West,270,3.0,3.0,63,0.00,,,0.00,Rainwise IP-100,2013-07-06 14:16:00,
2013-07-06 10:21:00,84.9,71.0,30.01,NNE,22,4.0,0.0,63,0.00,,,0.00,Rainwise IP-100,2013-07-06 14:21:00,
2013-07-06 10:26:00,85.1,71.0,30.00,WNW,292,4.0,0.0,63,0.00,,,0.00,Rainwise IP-100,2013-07-06 14:26:00,
2013-07-06 10:31:00,85.2,71.0,29.97,NNW,337,3.0,9.0,63,0.00,,,0.00,Rainwise IP-100,2013-07-06 14:31:00,
2013-07-06 10:36:00,85.5,71.0,30.01,West,270,7.0,8.0,63,0.00,,,0.00,Rainwise IP-100,2013-07-06 14:36:00,
2013-07-06 10:41:00,86.0,71.0,29.98,NNE,22,4.0,8.0,62,0.00,,,0.00,Rainwise IP-100,2013-07-06 14:41:00,
2013-07-06 10:46:00,86.1,71.0,30.00,NNW,337,7.0,9.0,61,0.00,,,0.00,Rainwise IP-100,2013-07-06 14:46:00,
2013-07-06 10:51:00,85.9,70.0,30.01,NNW,337,6.0,9.0,60,0.00,,,0.00,Rainwise IP-100,2013-07-06 14:51:00,
2013-07-06 10:56:00,85.7,69.0,30.00,NW,315,7.0,7.0,58,0.00,,,0.00,Rainwise IP-100,2013-07-06 14:56:00,
2013-07-06 11:01:00,85.7,69.0,30.01,NNW,337,5.0,5.0,57,0.00,,,0.00,Rainwise IP-100,2013-07-06 15:01:00,
2013-07-06 11:06:00,85.8,69.0,29.98,NNW,337,8.0,8.0,57,0.00,,,0.00,Rainwise IP-100,2013-07-06 15:06:00,
2013-07-06 11:11:00,85.7,69.0,29.99,NW,315,6.0,6.0,57,0.00,,,0.00,Rainwise IP-100,2013-07-06 15:11:00,
2013-07-06 11:16:00,85.7,69.0,29.98,NW,315,4.0,0.0,58,0.00,,,0.00,Rainwise IP-100,2013-07-06 15:16:00,
2013-07-06 11:21:00,86.0,69.0,29.98,NNW,337,3.0,0.0,58,0.00,,,0.00,Rainwise IP-100,2013-07-06 15:21:00,
2013-07-06 11:26:00,86.1,69.0,30.00,NW,315,7.0,7.0,57,0.00,,,0.00,Rainwise IP-100,2013-07-06 15:26:00,
2013-07-06 11:31:00,85.6,68.0,29.99,NW,315,3.0,9.0,57,0.00,,,0.00,Rainwise IP-100,2013-07-06 15:31:00,
2013-07-06 11:36:00,85.1,68.0,29.98,WNW,292,6.0,0.0,58,0.00,,,0.00,Rainwise IP-100,2013-07-06 15:36:00,
2013-07-06 11:41:00,85.3,69.0,29.99,NNW,337,5.0,5.0,58,0.00,,,0.00,Rainwise IP-100,2013-07-06 15:41:00,
2013-07-06 11:46:00,85.0,69.0,30.00,NW,315,5.0,5.0,59,0.00,,,0.00,Rainwise IP-100,2013-07-06 15:46:00,
2013-07-06 11:51:00,84.6,69.0,29.98,NNW,337,5.0,5.0,59,0.00,,,0.00,Rainwise IP-100,2013-07-06 15:51:00,
2013-07-06 11:56:00,85.2,69.0,29.98,WNW,292,5.0,8.0,58,0.00,,,0.00,Rainwise IP-100,2013-07-06 15:56:00,
2013-07-06 12:01:00,85.8,69.0,29.98,WNW,292,2.0,8.0,58,0.00,,,0.00,Rainwise IP-100,2013-07-06 16:01:00,
2013-07-06 12:06:00,85.8,69.0,29.99,NW,315,3.0,3.0,57,0.00,,,0.00,Rainwise IP-100,2013-07-06 16:06:00,
2013-07-06 12:11:00,85.8,69.0,29.99,WSW,247,0.0,1.0,57,0.00,,,0.00,Rainwise IP-100,2013-07-06 16:11:00,
2013-07-06 12:16:00,86.2,69.0,29.99,West,270,3.0,6.0,57,0.00,,,0.00,Rainwise IP-100,2013-07-06 16:16:00,
2013-07-06 12:21:00,86.6,69.0,29.95,NNW,337,3.0,9.0,57,0.00,,,0.00,Rainwise IP-100,2013-07-06 16:21:00,
2013-07-06 12:26:00,86.3,69.0,29.99,NNW,337,5.0,8.0,56,0.00,,,0.00,Rainwise IP-100,2013-07-06 16:26:00,
2013-07-06 12:31:00,86.0,69.0,29.98,NW,315,0.0,1.0,57,0.00,,,0.00,Rainwise IP-100,2013-07-06 16:31:00,
2013-07-06 12:36:00,86.0,69.0,29.98,WNW,292,4.0,4.0,57,0.00,,,0.00,Rainwise IP-100,2013-07-06 16:36:00,
2013-07-06 12:41:00,86.6,69.0,29.95,WNW,292,3.0,0.0,56,0.00,,,0.00,Rainwise IP-100,2013-07-06 16:41:00,
2013-07-06 12:46:00,87.1,69.0,29.98,WSW,247,2.0,7.0,56,0.00,,,0.00,Rainwise IP-100,2013-07-06 16:46:00,
2013-07-06 12:51:00,87.7,69.0,29.98,West,270,5.0,8.0,55,0.00,,,0.00,Rainwise IP-100,2013-07-06 16:51:00,
2013-07-06 12:56:00,88.3,69.0,29.98,NNE,22,6.0,9.0,54,0.00,,,0.00,Rainwise IP-100,2013-07-06 16:56:00,
2013-07-06 13:01:00,88.5,69.0,29.95,North,0,5.0,7.0,54,0.00,,,0.00,Rainwise IP-100,2013-07-06 17:01:00,
2013-07-06 13:06:00,87.9,69.0,29.98,NNW,337,5.0,5.0,54,0.00,,,0.00,Rainwise IP-100,2013-07-06 17:06:00,
2013-07-06 13:11:00,86.8,68.0,29.98,NNW,337,5.0,5.0,55,0.00,,,0.00,Rainwise IP-100,2013-07-06 17:11:00,
2013-07-06 13:16:00,87.0,69.0,29.95,NNW,337,3.0,3.0,56,0.00,,,0.00,Rainwise IP-100,2013-07-06 17:16:00,
2013-07-06 13:21:00,87.7,69.0,29.98,NNW,337,2.0,9.0,55,0.00,,,0.00,Rainwise IP-100,2013-07-06 17:21:00,
2013-07-06 13:26:00,87.5,69.0,29.98,NE,45,2.0,2.0,54,0.00,,,0.00,Rainwise IP-100,2013-07-06 17:26:00,
2013-07-06 13:31:00,87.2,69.0,29.96,WNW,292,1.0,7.0,55,0.00,,,0.00,Rainwise IP-100,2013-07-06 17:31:00,
2013-07-06 13:36:00,87.1,69.0,29.97,NNW,337,3.0,0.0,56,0.00,,,0.00,Rainwise IP-100,2013-07-06 17:36:00,
2013-07-06 13:41:00,86.6,69.0,29.95,SW,225,4.0,9.0,56,0.00,,,0.00,Rainwise IP-100,2013-07-06 17:41:00,
2013-07-06 13:46:00,86.4,69.0,29.98,WNW,292,5.0,7.0,56,0.00,,,0.00,Rainwise IP-100,2013-07-06 17:46:00,
2013-07-06 13:51:00,86.4,69.0,29.97,North,0,9.0,9.0,57,0.00,,,0.00,Rainwise IP-100,2013-07-06 17:51:00,
2013-07-06 13:56:00,86.6,69.0,29.96,NNW,337,5.0,5.0,57,0.00,,,0.00,Rainwise IP-100,2013-07-06 17:56:00,
2013-07-06 14:01:00,87.0,69.0,29.97,NW,315,3.0,3.0,56,0.00,,,0.00,Rainwise IP-100,2013-07-06 18:01:00,
2013-07-06 14:06:00,87.5,69.0,29.94,WNW,292,5.0,5.0,55,0.00,,,0.00,Rainwise IP-100,2013-07-06 18:06:00,
2013-07-06 14:11:00,87.5,69.0,29.96,WNW,292,3.0,9.0,55,0.00,,,0.00,Rainwise IP-100,2013-07-06 18:11:00,
2013-07-06 14:16:00,87.5,69.0,29.95,WSW,247,6.0,8.0,55,0.00,,,0.00,Rainwise IP-100,2013-07-06 18:16:00,
2013-07-06 14:21:00,88.1,70.0,29.95,West,270,4.0,8.0,55,0.00,,,0.00,Rainwise IP-100,2013-07-06 18:21:00,
2013-07-06 14:26:00,88.5,69.0,29.94,WNW,292,8.0,8.0,54,0.00,,,0.00,Rainwise IP-100,2013-07-06 18:26:00,
2013-07-06 14:31:00,87.6,69.0,29.97,WNW,292,2.0,0.0,54,0.00,,,0.00,Rainwise IP-100,2013-07-06 18:31:00,
2013-07-06 14:36:00,86.4,68.0,29.95,NW,315,3.0,7.0,55,0.00,,,0.00,Rainwise IP-100,2013-07-06 18:36:00,
2013-07-06 14:41:00,86.0,69.0,29.96,West,270,2.0,5.0,57,0.00,,,0.00,Rainwise IP-100,2013-07-06 18:41:00,
2013-07-06 14:46:00,86.1,69.0,29.97,WSW,247,5.0,5.0,58,0.00,,,0.00,Rainwise IP-100,2013-07-06 18:46:00,
2013-07-06 14:51:00,86.4,70.0,29.92,West,270,3.0,5.0,58,0.00,,,0.00,Rainwise IP-100,2013-07-06 18:51:00,
2013-07-06 14:56:00,86.9,70.0,29.97,WNW,292,4.0,9.0,58,0.00,,,0.00,Rainwise IP-100,2013-07-06 18:56:00,
2013-07-06 15:01:00,87.4,70.0,29.96,WNW,292,2.0,8.0,57,0.00,,,0.00,Rainwise IP-100,2013-07-06 19:01:00,
2013-07-06 15:06:00,87.8,70.0,29.93,NNW,337,5.0,8.0,56,0.00,,,0.00,Rainwise IP-100,2013-07-06 19:06:00,
2013-07-06 15:11:00,88.0,70.0,29.93,WNW,292,4.0,6.0,55,0.00,,,0.00,Rainwise IP-100,2013-07-06 19:11:00,
2013-07-06 15:16:00,87.5,69.0,29.95,NW,315,9.0,9.0,55,0.00,,,0.00,Rainwise IP-100,2013-07-06 19:16:00,
2013-07-06 15:21:00,86.4,69.0,29.93,NNW,337,7.0,0.0,56,0.00,,,0.00,Rainwise IP-100,2013-07-06 19:21:00,
2013-07-06 15:26:00,85.4,68.0,29.96,NNW,337,5.0,9.0,56,0.00,,,0.00,Rainwise IP-100,2013-07-06 19:26:00,
2013-07-06 15:31:00,84.5,67.0,29.94,WNW,292,3.0,0.0,57,0.00,,,0.00,Rainwise IP-100,2013-07-06 19:31:00,
2013-07-06 15:36:00,84.2,68.0,29.96,NNW,337,4.0,9.0,59,0.00,,,0.00,Rainwise IP-100,2013-07-06 19:36:00,
2013-07-06 15:41:00,85.0,69.0,29.93,North,0,6.0,9.0,59,0.00,,,0.00,Rainwise IP-100,2013-07-06 19:41:00,
2013-07-06 15:46:00,85.9,69.0,29.95,WNW,292,2.0,9.0,58,0.00,,,0.00,Rainwise IP-100,2013-07-06 19:46:00,
2013-07-06 15:51:00,86.4,69.0,29.95,West,270,2.0,2.0,57,0.00,,,0.00,Rainwise IP-100,2013-07-06 19:51:00,
2013-07-06 15:56:00,87.1,69.0,29.95,NNW,337,4.0,9.0,56,0.00,,,0.00,Rainwise IP-100,2013-07-06 19:56:00,
2013-07-06 16:01:00,87.4,69.0,29.96,NNW,337,3.0,3.0,55,0.00,,,0.00,Rainwise IP-100,2013-07-06 20:01:00,
2013-07-06 16:06:00,86.3,69.0,29.96,NNW,337,4.0,6.0,56,0.00,,,0.00,Rainwise IP-100,2013-07-06 20:06:00,
2013-07-06 16:11:00,83.0,67.0,29.96,NNW,337,4.0,7.0,59,0.00,,,0.00,Rainwise IP-100,2013-07-06 20:11:00,
2013-07-06 16:16:00,80.0,66.0,29.93,NNW,337,4.0,7.0,64,0.00,,,0.00,Rainwise IP-100,2013-07-06 20:16:00,
2013-07-06 16:21:00,78.9,67.0,29.95,NNW,337,4.0,7.0,67,0.00,,,0.00,Rainwise IP-100,2013-07-06 20:21:00,
2013-07-06 16:26:00,78.7,67.0,29.96,NNW,337,3.0,6.0,69,0.00,,,0.00,Rainwise IP-100,2013-07-06 20:26:00,
2013-07-06 16:31:00,79.9,69.0,29.96,NNW,337,2.0,6.0,69,0.00,,,0.00,Rainwise IP-100,2013-07-06 20:31:00,
2013-07-06 16:36:00,81.7,69.0,29.93,NNW,337,2.0,7.0,67,0.00,,,0.00,Rainwise IP-100,2013-07-06 20:36:00,
2013-07-06 16:41:00,83.0,70.0,29.93,North,0,2.0,6.0,65,0.00,,,0.00,Rainwise IP-100,2013-07-06 20:41:00,
2013-07-06 16:46:00,84.4,70.0,29.93,North,0,0.0,5.0,63,0.00,,,0.00,Rainwise IP-100,2013-07-06 20:46:00,
2013-07-06 16:51:00,85.2,70.0,29.93,North,0,3.0,4.0,61,0.00,,,0.00,Rainwise IP-100,2013-07-06 20:51:00,
2013-07-06 16:56:00,85.4,70.0,29.93,NNW,337,2.0,4.0,60,0.00,,,0.00,Rainwise IP-100,2013-07-06 20:56:00,
2013-07-06 17:01:00,85.5,69.0,29.94,NW,315,2.0,5.0,59,0.00,,,0.00,Rainwise IP-100,2013-07-06 21:01:00,
2013-07-06 17:06:00,85.9,70.0,29.91,NNW,337,0.0,3.0,59,0.00,,,0.00,Rainwise IP-100,2013-07-06 21:06:00,
2013-07-06 17:11:00,86.6,70.0,29.94,NNE,22,3.0,3.0,58,0.00,,,0.00,Rainwise IP-100,2013-07-06 21:11:00,
2013-07-06 17:16:00,87.1,70.0,29.95,NNW,337,3.0,6.0,57,0.00,,,0.00,Rainwise IP-100,2013-07-06 21:16:00,
2013-07-06 17:21:00,87.1,69.0,29.93,NNW,337,1.0,9.0,56,0.00,,,0.00,Rainwise IP-100,2013-07-06 21:21:00,
2013-07-06 17:26:00,87.1,69.0,29.92,WSW,247,1.0,8.0,55,0.00,,,0.00,Rainwise IP-100,2013-07-06 21:26:00,
2013-07-06 17:31:00,87.1,69.0,29.93,NW,315,3.0,8.0,55,0.00,,,0.00,Rainwise IP-100,2013-07-06 21:31:00,
2013-07-06 17:36:00,87.2,69.0,29.89,NW,315,3.0,9.0,55,0.00,,,0.00,Rainwise IP-100,2013-07-06 21:36:00,
2013-07-06 17:41:00,87.2,69.0,29.91,NW,315,2.0,7.0,55,0.00,,,0.00,Rainwise IP-100,2013-07-06 21:41:00,
2013-07-06 17:46:00,87.4,69.0,29.93,West,270,4.0,4.0,55,0.00,,,0.00,Rainwise IP-100,2013-07-06 21:46:00,
2013-07-06 17:51:00,87.6,69.0,29.94,West,270,1.0,7.0,54,0.00,,,0.00,Rainwise IP-100,2013-07-06 21:51:00,
2013-07-06 17:56:00,87.2,69.0,29.89,NNW,337,3.0,6.0,55,0.00,,,0.00,Rainwise IP-100,2013-07-06 21:56:00,
2013-07-06 18:01:00,86.5,69.0,29.91,West,270,0.0,5.0,56,0.00,,,0.00,Rainwise IP-100,2013-07-06 22:01:00,
2013-07-06 18:06:00,86.2,69.0,29.92,WNW,292,4.0,6.0,57,0.00,,,0.00,Rainwise IP-100,2013-07-06 22:06:00,
2013-07-06 18:11:00,86.1,68.0,29.92,WSW,247,0.0,8.0,56,0.00,,,0.00,Rainwise IP-100,2013-07-06 22:11:00,
2013-07-06 18:16:00,86.0,67.0,29.92,NW,315,2.0,2.0,54,0.00,,,0.00,Rainwise IP-100,2013-07-06 22:16:00,
2013-07-06 18:21:00,85.7,67.0,29.92,WNW,292,3.0,6.0,54,0.00,,,0.00,Rainwise IP-100,2013-07-06 22:21:00,
2013-07-06 18:26:00,85.2,66.0,29.93,NNW,337,2.0,5.0,54,0.00,,,0.00,Rainwise IP-100,2013-07-06 22:26:00,
2013-07-06 18:31:00,85.0,67.0,29.93,WSW,247,3.0,6.0,55,0.00,,,0.00,Rainwise IP-100,2013-07-06 22:31:00,
2013-07-06 18:36:00,85.0,67.0,29.93,NNE,22,2.0,5.0,55,0.00,,,0.00,Rainwise IP-100,2013-07-06 22:36:00,
2013-07-06 18:41:00,85.2,67.0,29.91,NW,315,3.0,6.0,55,0.00,,,0.00,Rainwise IP-100,2013-07-06 22:41:00,
2013-07-06 18:46:00,85.3,67.0,29.93,NNW,337,3.0,5.0,55,0.00,,,0.00,Rainwise IP-100,2013-07-06 22:46:00,
2013-07-06 18:51:00,85.3,67.0,29.94,WNW,292,2.0,5.0,55,0.00,,,0.00,Rainwise IP-100,2013-07-06 22:51:00,
2013-07-06 18:56:00,85.2,67.0,29.93,NNW,337,2.0,4.0,56,0.00,,,0.00,Rainwise IP-100,2013-07-06 22:56:00,
2013-07-06 19:01:00,85.1,67.0,29.93,WNW,292,1.0,6.0,56,0.00,,,0.00,Rainwise IP-100,2013-07-06 23:01:00,
2013-07-06 19:06:00,85.0,67.0,29.90,NNW,337,2.0,4.0,56,0.00,,,0.00,Rainwise IP-100,2013-07-06 23:06:00,
2013-07-06 19:11:00,84.7,67.0,29.93,NW,315,1.0,3.0,57,0.00,,,0.00,Rainwise IP-100,2013-07-06 23:11:00,
2013-07-06 19:16:00,84.3,68.0,29.91,WNW,292,0.0,3.0,58,0.00,,,0.00,Rainwise IP-100,2013-07-06 23:16:00,
2013-07-06 19:21:00,83.9,68.0,29.93,West,270,1.0,3.0,59,0.00,,,0.00,Rainwise IP-100,2013-07-06 23:21:00,
2013-07-06 19:26:00,83.4,67.0,29.92,NNW,337,2.0,3.0,59,0.00,,,0.00,Rainwise IP-100,2013-07-06 23:26:00,
2013-07-06 19:31:00,83.0,67.0,29.91,West,270,1.0,3.0,60,0.00,,,0.00,Rainwise IP-100,2013-07-06 23:31:00,
2013-07-06 19:36:00,82.7,67.0,29.91,WNW,292,2.0,4.0,60,0.00,,,0.00,Rainwise IP-100,2013-07-06 23:36:00,
2013-07-06 19:41:00,82.3,67.0,29.91,WSW,247,2.0,4.0,61,0.00,,,0.00,Rainwise IP-100,2013-07-06 23:41:00,
2013-07-06 19:46:00,82.1,67.0,29.91,WNW,292,1.0,4.0,61,0.00,,,0.00,Rainwise IP-100,2013-07-06 23:46:00,
2013-07-06 19:51:00,82.0,67.0,29.91,West,270,2.0,7.0,61,0.00,,,0.00,Rainwise IP-100,2013-07-06 23:51:00,
2013-07-06 19:56:00,81.8,66.0,29.92,WSW,247,3.0,6.0,61,0.00,,,0.00,Rainwise IP-100,2013-07-06 23:56:00,
2013-07-06 20:01:00,81.7,67.0,29.92,West,270,0.0,5.0,62,0.00,,,0.00,Rainwise IP-100,2013-07-07 00:01:00,
2013-07-06 20:06:00,81.4,67.0,29.88,WSW,247,2.0,4.0,63,0.00,,,0.00,Rainwise IP-100,2013-07-07 00:06:00,
2013-07-06 20:11:00,81.0,68.0,29.90,WNW,292,0.0,4.0,65,0.00,,,0.00,Rainwise IP-100,2013-07-07 00:11:00,
2013-07-06 20:16:00,80.5,68.0,29.92,WSW,247,1.0,6.0,67,0.00,,,0.00,Rainwise IP-100,2013-07-07 00:16:00,
2013-07-06 20:21:00,80.2,69.0,29.91,WSW,247,2.0,5.0,68,0.00,,,0.00,Rainwise IP-100,2013-07-07 00:21:00,
2013-07-06 20:26:00,79.9,69.0,29.92,WSW,247,6.0,6.0,69,0.00,,,0.00,Rainwise IP-100,2013-07-07 00:26:00,
2013-07-06 20:31:00,79.6,68.0,29.92,WNW,292,0.0,7.0,69,0.00,,,0.00,Rainwise IP-100,2013-07-07 00:31:00,
2013-07-06 20:36:00,79.5,69.0,29.89,West,270,0.0,5.0,70,0.00,,,0.00,Rainwise IP-100,2013-07-07 00:36:00,
2013-07-06 20:41:00,79.4,69.0,29.91,WSW,247,5.0,5.0,70,0.00,,,0.00,Rainwise IP-100,2013-07-07 00:41:00,
2013-07-06 20:46:00,79.3,69.0,29.92,West,270,4.0,5.0,70,0.00,,,0.00,Rainwise IP-100,2013-07-07 00:46:00,
2013-07-06 20:51:00,79.1,68.0,29.93,West,270,3.0,7.0,70,0.00,,,0.00,Rainwise IP-100,2013-07-07 00:51:00,
2013-07-06 20:56:00,78.9,68.0,29.90,WNW,292,4.0,7.0,70,0.00,,,0.00,Rainwise IP-100,2013-07-07 00:56:00,
2013-07-06 21:01:00,78.8,68.0,29.93,WSW,247,7.0,7.0,71,0.00,,,0.00,Rainwise IP-100,2013-07-07 01:01:00,
2013-07-06 21:06:00,78.7,68.0,29.93,NNW,337,4.0,0.0,71,0.00,,,0.00,Rainwise IP-100,2013-07-07 01:06:00,
2013-07-06 21:11:00,78.6,68.0,29.93,West,270,4.0,8.0,71,0.00,,,0.00,Rainwise IP-100,2013-07-07 01:11:00,
2013-07-06 21:16:00,78.6,68.0,29.92,WNW,292,5.0,0.0,71,0.00,,,0.00,Rainwise IP-100,2013-07-07 01:16:00,
2013-07-06 21:21:00,78.6,68.0,29.93,WNW,292,2.0,8.0,70,0.00,,,0.00,Rainwise IP-100,2013-07-07 01:21:00,
2013-07-06 21:26:00,78.6,68.0,29.95,WSW,247,3.0,7.0,70,0.00,,,0.00,Rainwise IP-100,2013-07-07 01:26:00,
2013-07-06 21:31:00,78.7,67.0,29.94,WSW,247,5.0,8.0,69,0.00,,,0.00,Rainwise IP-100,2013-07-07 01:31:00,
2013-07-06 21:36:00,78.8,67.0,29.93,WNW,292,4.0,7.0,69,0.00,,,0.00,Rainwise IP-100,2013-07-07 01:36:00,
2013-07-06 21:41:00,78.8,67.0,29.91,WSW,247,1.0,9.0,69,0.00,,,0.00,Rainwise IP-100,2013-07-07 01:41:00,
2013-07-06 21:46:00,78.8,67.0,29.92,WNW,292,6.0,6.0,68,0.00,,,0.00,Rainwise IP-100,2013-07-07 01:46:00,
2013-07-06 21:51:00,78.7,67.0,29.95,WNW,292,3.0,3.0,68,0.00,,,0.00,Rainwise IP-100,2013-07-07 01:51:00,
2013-07-06 21:56:00,78.7,67.0,29.94,West,270,5.0,5.0,68,0.00,,,0.00,Rainwise IP-100,2013-07-07 01:56:00,
2013-07-06 22:01:00,78.6,67.0,29.92,WNW,292,2.0,0.0,68,0.00,,,0.00,Rainwise IP-100,2013-07-07 02:01:00,
2013-07-06 22:06:00,78.5,67.0,29.95,WSW,247,8.0,9.0,68,0.00,,,0.00,Rainwise IP-100,2013-07-07 02:06:00,
2013-07-06 22:11:00,78.5,66.0,29.94,WSW,247,3.0,8.0,67,0.00,,,0.00,Rainwise IP-100,2013-07-07 02:11:00,
2013-07-06 22:16:00,78.6,66.0,29.95,WNW,292,0.0,3.0,67,0.00,,,0.00,Rainwise IP-100,2013-07-07 02:16:00,
2013-07-06 22:21:00,78.7,66.0,29.93,SW,225,4.0,9.0,66,0.00,,,0.00,Rainwise IP-100,2013-07-07 02:21:00,
2013-07-06 22:26:00,78.6,66.0,29.93,WNW,292,4.0,0.0,66,0.00,,,0.00,Rainwise IP-100,2013-07-07 02:26:00,
2013-07-06 22:31:00,78.6,66.0,29.94,WNW,292,3.0,9.0,65,0.00,,,0.00,Rainwise IP-100,2013-07-07 02:31:00,
2013-07-06 22:36:00,78.5,66.0,29.93,WSW,247,2.0,9.0,65,0.00,,,0.00,Rainwise IP-100,2013-07-07 02:36:00,
2013-07-06 22:41:00,78.2,66.0,29.93,WNW,292,8.0,9.0,65,0.00,,,0.00,Rainwise IP-100,2013-07-07 02:41:00,
2013-07-06 22:47:00,78.0,66.0,29.95,West,270,3.0,8.0,66,0.00,,,0.00,Rainwise IP-100,2013-07-07 02:47:00,
2013-07-06 22:52:00,77.8,65.0,29.94,West,270,4.0,9.0,66,0.00,,,0.00,Rainwise IP-100,2013-07-07 02:52:00,
2013-07-06 22:57:00,77.5,66.0,29.94,West,270,5.0,8.0,68,0.00,,,0.00,Rainwise IP-100,2013-07-07 02:57:00,
2013-07-06 23:02:00,77.1,66.0,29.95,WNW,292,4.0,7.0,69,0.00,,,0.00,Rainwise IP-100,2013-07-07 03:02:00,
2013-07-06 23:07:00,76.7,66.0,29.94,SW,225,6.0,9.0,70,0.00,,,0.00,Rainwise IP-100,2013-07-07 03:07:00,
2013-07-06 23:12:00,76.6,66.0,29.94,WSW,247,6.0,6.0,70,0.00,,,0.00,Rainwise IP-100,2013-07-07 03:12:00,
2013-07-06 23:17:00,76.7,66.0,29.96,West,270,7.0,0.0,69,0.00,,,0.00,Rainwise IP-100,2013-07-07 03:17:00,
2013-07-06 23:22:00,76.7,66.0,29.93,NW,315,8.0,0.0,69,0.00,,,0.00,Rainwise IP-100,2013-07-07 03:22:00,
2013-07-06 23:27:00,76.6,65.0,29.96,NW,315,5.0,8.0,68,0.00,,,0.00,Rainwise IP-100,2013-07-07 03:27:00,
2013-07-06 23:32:00,76.5,65.0,29.96,WNW,292,3.0,7.0,68,0.00,,,0.00,Rainwise IP-100,2013-07-07 03:32:00,
2013-07-06 23:37:00,76.4,65.0,29.94,NNW,337,2.0,0.0,67,0.00,,,0.00,Rainwise IP-100,2013-07-07 03:37:00,
2013-07-06 23:42:00,76.3,64.0,29.94,NW,315,2.0,8.0,67,0.00,,,0.00,Rainwise IP-100,2013-07-07 03:42:00,
2013-07-06 23:47:00,76.3,64.0,29.95,WNW,292,4.0,9.0,66,0.00,,,0.00,Rainwise IP-100,2013-07-07 03:47:00,
2013-07-06 23:52:00,76.2,64.0,29.97,WNW,292,2.0,9.0,66,0.00,,,0.00,Rainwise IP-100,2013-07-07 03:52:00,
2013-07-06 23:57:00,76.2,63.0,29.93,WNW,292,4.0,0.0,65,0.00,,,0.00,Rainwise IP-100,2013-07-07 03:57:00,